createdAt,value
2022-10-05T00:01:25.104Z,14.95
2022-10-05T00:03:59.042Z,21.57
2022-10-05T00:06:30.200Z,20.00
2022-10-05T00:08:58.598Z,17.80
2022-10-05T00:11:26.995Z,22.75
2022-10-05T00:13:55.493Z,22.58
2022-10-05T00:16:23.726Z,20.55
2022-10-05T00:18:54.164Z,19.90
2022-10-05T00:21:25.781Z,21.95
2022-10-05T00:23:59.659Z,20.10
2022-10-05T00:26:33.004Z,16.93
2022-10-05T00:29:03.465Z,16.98
2022-10-05T00:31:34.249Z,20.73
2022-10-05T00:34:02.719Z,17.57
2022-10-05T00:36:31.177Z,16.50
2022-10-05T00:39:03.005Z,16.73
2022-10-05T00:41:41.389Z,14.73
2022-10-05T00:44:25.787Z,15.50
2022-10-05T00:46:57.671Z,17.73
2022-10-05T00:49:41.308Z,20.50
2022-10-05T00:52:20.249Z,18.97
2022-10-05T00:55:00.811Z,14.30
2022-10-05T00:57:40.191Z,17.88
2022-10-05T01:00:13.037Z,19.77
2022-10-05T01:02:53.201Z,16.80
2022-10-05T01:05:36.103Z,14.98
2022-10-05T01:08:14.844Z,12.65
2022-10-05T01:10:48.402Z,13.95
2022-10-05T01:13:24.776Z,14.57
2022-10-05T01:15:59.516Z,13.10
2022-10-05T01:18:38.692Z,14.70
2022-10-05T01:21:16.831Z,12.55
2022-10-05T01:24:04.875Z,15.05
2022-10-05T01:26:57.299Z,12.25
2022-10-05T01:29:37.069Z,12.18
2022-10-05T01:32:24.266Z,13.60
2022-10-05T01:35:01.043Z,19.83
2022-10-05T01:37:37.282Z,14.95
2022-10-05T01:40:11.715Z,15.67
2022-10-05T01:42:56.060Z,13.13
2022-10-05T01:45:33.771Z,13.32
2022-10-05T01:48:10.585Z,15.75
2022-10-05T01:50:51.926Z,14.50
2022-10-05T01:53:32.264Z,11.98
2022-10-05T01:56:07.459Z,13.45
2022-10-05T01:58:42.672Z,14.37
2022-10-05T02:01:21.054Z,16.52
2022-10-05T02:03:54.170Z,16.50
2022-10-05T02:06:26.513Z,14.90
2022-10-05T02:09:04.516Z,18.52
2022-10-05T02:11:33.920Z,16.20
2022-10-05T02:14:08.355Z,16.70
2022-10-05T02:16:42.026Z,14.55
2022-10-05T02:19:16.160Z,11.88
2022-10-05T02:21:48.998Z,12.13
2022-10-05T02:24:23.956Z,14.97
2022-10-05T02:26:54.449Z,14.40
2022-10-05T02:29:27.903Z,11.40
2022-10-05T02:32:01.178Z,12.63
2022-10-05T02:34:32.009Z,12.98
2022-10-05T02:37:19.204Z,10.02
2022-10-05T02:40:13.374Z,12.83
2022-10-05T02:42:53.980Z,15.02
2022-10-05T02:45:28.763Z,11.55
2022-10-05T02:48:06.263Z,14.93
2022-10-05T02:50:43.047Z,12.15
2022-10-05T02:53:23.450Z,14.87
2022-10-05T02:56:02.013Z,13.13
2022-10-05T02:58:40.094Z,15.50
2022-10-05T03:01:16.638Z,12.50
2022-10-05T03:03:54.610Z,14.80
2022-10-05T03:06:26.518Z,16.75
2022-10-05T03:09:02.429Z,14.57
2022-10-05T03:11:42.145Z,14.83
2022-10-05T03:14:19.934Z,13.15
2022-10-05T03:17:01.294Z,17.13
2022-10-05T03:19:51.208Z,16.77
2022-10-05T03:22:32.336Z,14.15
2022-10-05T03:25:28.942Z,16.97
2022-10-05T03:28:04.174Z,17.13
2022-10-05T03:30:40.571Z,14.88
2022-10-05T03:33:15.895Z,13.70
2022-10-05T03:35:54.942Z,13.43
2022-10-05T03:38:31.458Z,13.57
2022-10-05T03:41:09.602Z,15.90
2022-10-05T03:43:53.691Z,13.90
2022-10-05T03:46:33.690Z,18.63
2022-10-05T03:49:11.957Z,22.50
2022-10-05T03:51:46.492Z,26.57
2022-10-05T03:54:23.541Z,27.73
2022-10-05T03:56:56.368Z,21.37
2022-10-05T03:59:32.655Z,17.85
2022-10-05T04:02:06.077Z,20.52
2022-10-05T04:04:38.652Z,16.93
2022-10-05T04:07:20.657Z,20.23
2022-10-05T04:09:52.228Z,19.73
2022-10-05T04:12:26.766Z,16.47
2022-10-05T04:15:01.718Z,19.45
2022-10-05T04:17:35.987Z,19.07
2022-10-05T04:20:08.551Z,20.33
2022-10-05T04:22:42.760Z,17.37
2022-10-05T04:25:18.703Z,15.63
2022-10-05T04:27:53.086Z,18.30
2022-10-05T04:30:23.118Z,17.40
2022-10-05T04:32:57.283Z,17.43
2022-10-05T04:35:50.453Z,15.67
2022-10-05T04:38:31.383Z,12.67
2022-10-05T04:41:15.392Z,14.27
2022-10-05T04:43:55.573Z,15.37
2022-10-05T04:46:34.422Z,16.50
2022-10-05T04:49:38.917Z,16.13
2022-10-05T04:52:17.906Z,20.17
2022-10-05T04:55:02.614Z,13.27
2022-10-05T04:57:40.998Z,15.03
2022-10-05T05:00:23.881Z,16.17
2022-10-05T05:03:32.059Z,13.90
2022-10-05T05:06:18.666Z,17.00
2022-10-05T05:09:16.085Z,18.67
2022-10-05T05:11:59.139Z,13.77
2022-10-05T05:14:47.715Z,17.47
2022-10-05T05:17:29.889Z,15.27
2022-10-05T05:20:06.786Z,17.20
2022-10-05T05:22:47.936Z,13.97
2022-10-05T05:25:35.579Z,15.87
2022-10-05T05:28:18.225Z,15.17
2022-10-05T05:30:52.102Z,13.27
2022-10-05T05:33:23.228Z,17.43
2022-10-05T05:36:22.993Z,15.03
2022-10-05T05:39:05.081Z,19.43
2022-10-05T05:41:39.520Z,15.33
2022-10-05T05:44:21.388Z,15.90
2022-10-05T05:47:04.423Z,13.40
2022-10-05T05:49:51.753Z,14.73
2022-10-05T05:52:26.302Z,15.60
2022-10-05T05:54:59.521Z,15.20
2022-10-05T05:57:34.401Z,14.07
2022-10-05T06:00:07.720Z,12.63
2022-10-05T06:02:51.988Z,17.63
2022-10-05T06:05:29.878Z,14.33
2022-10-05T06:08:03.145Z,16.60
2022-10-05T06:10:41.404Z,13.33
2022-10-05T06:13:19.072Z,14.83
2022-10-05T06:15:54.810Z,17.20
2022-10-05T06:18:24.776Z,17.07
2022-10-05T06:21:01.674Z,21.50
2022-10-05T06:23:37.168Z,14.50
2022-10-05T06:26:14.783Z,16.00
2022-10-05T06:28:51.605Z,19.83
2022-10-05T06:31:31.599Z,15.43
2022-10-05T06:34:15.384Z,14.57
2022-10-05T06:36:49.901Z,18.00
2022-10-05T06:39:38.390Z,15.57
2022-10-05T06:42:22.045Z,15.17
2022-10-05T06:45:20.336Z,20.60
2022-10-05T06:48:05.337Z,12.67
2022-10-05T06:51:04.266Z,20.03
2022-10-05T06:53:47.825Z,12.77
2022-10-05T06:56:22.051Z,12.80
2022-10-05T06:58:58.209Z,13.17
2022-10-05T07:01:39.040Z,12.60
2022-10-05T07:04:22.407Z,14.47
2022-10-05T07:06:55.744Z,15.10
2022-10-05T07:09:33.700Z,15.13
2022-10-05T07:12:34.331Z,14.37
2022-10-05T07:15:19.257Z,17.57
2022-10-05T07:17:59.362Z,14.13
2022-10-05T07:20:33.723Z,15.63
2022-10-05T07:23:16.869Z,10.90
2022-10-05T07:25:52.906Z,14.95
2022-10-05T07:28:29.194Z,7.47
2022-10-05T07:31:04.781Z,11.63
2022-10-05T07:33:41.311Z,9.87
2022-10-05T07:36:40.708Z,11.90
2022-10-05T07:39:14.420Z,9.80
2022-10-05T07:41:47.702Z,10.68
2022-10-05T07:44:23.666Z,10.95
2022-10-05T07:46:55.896Z,10.40
2022-10-05T07:49:37.580Z,10.27
2022-10-05T07:52:14.138Z,11.00
2022-10-05T07:54:49.609Z,10.23
2022-10-05T07:57:28.612Z,10.30
2022-10-05T08:00:01.842Z,6.47
2022-10-05T08:02:46.845Z,7.13
2022-10-05T08:05:22.382Z,13.07
2022-10-05T08:07:57.932Z,10.02
2022-10-05T08:10:33.955Z,11.95
2022-10-05T08:13:12.608Z,8.35
2022-10-05T08:15:43.879Z,11.48
2022-10-05T08:18:20.566Z,12.70
2022-10-05T08:20:51.850Z,10.55
2022-10-05T08:23:32.199Z,9.52
2022-10-05T08:26:14.618Z,7.72
2022-10-05T08:28:47.686Z,8.10
2022-10-05T08:31:24.378Z,6.90
2022-10-05T08:33:59.624Z,7.93
2022-10-05T08:36:44.067Z,11.45
2022-10-05T08:39:19.300Z,6.53
2022-10-05T08:42:24.476Z,8.18
2022-10-05T08:45:27.958Z,10.13
2022-10-05T08:48:12.820Z,9.93
2022-10-05T08:51:23.648Z,8.48
2022-10-05T08:54:09.699Z,6.13
2022-10-05T08:56:46.098Z,9.10
2022-10-05T08:59:54.681Z,8.43
2022-10-05T09:02:32.876Z,12.90
2022-10-05T09:05:18.531Z,7.68
2022-10-05T09:08:23.538Z,8.52
2022-10-05T09:11:04.772Z,9.75
2022-10-05T09:13:56.278Z,8.60
2022-10-05T09:16:49.034Z,7.10
2022-10-05T09:19:50.381Z,7.43
2022-10-05T09:22:35.062Z,8.25
2022-10-05T09:25:17.179Z,8.18
2022-10-05T09:27:54.106Z,5.90
2022-10-05T09:30:52.460Z,5.00
2022-10-05T09:34:03.114Z,5.03
2022-10-05T09:37:15.035Z,7.82
2022-10-05T09:40:23.890Z,8.00
2022-10-05T09:43:23.091Z,8.02
2022-10-05T09:46:28.130Z,6.32
2022-10-05T09:49:17.402Z,7.40
2022-10-05T09:52:06.979Z,6.75
2022-10-05T09:55:15.137Z,7.15
2022-10-05T09:58:12.614Z,4.97
2022-10-05T10:01:09.193Z,6.55
2022-10-05T10:04:15.355Z,5.35
2022-10-05T10:07:11.051Z,7.25
2022-10-05T10:09:50.719Z,6.07
2022-10-05T10:12:38.068Z,4.32
2022-10-05T10:15:42.819Z,4.55
2022-10-05T10:18:31.548Z,5.35
2022-10-05T10:21:34.888Z,5.00
2022-10-05T10:24:33.743Z,6.63
2022-10-05T10:27:23.272Z,4.72
2022-10-05T10:30:07.394Z,6.07
2022-10-05T10:33:22.370Z,4.72
2022-10-05T10:36:01.608Z,4.07
2022-10-05T10:38:55.142Z,6.47
2022-10-05T10:42:01.587Z,5.78
2022-10-05T10:44:59.298Z,6.40
2022-10-05T10:47:44.930Z,4.57
2022-10-05T10:50:50.122Z,2.65
2022-10-05T10:53:37.509Z,3.60
2022-10-05T10:56:27.876Z,3.05
2022-10-05T10:59:35.417Z,4.78
2022-10-05T11:02:32.824Z,6.72
2022-10-05T11:05:21.230Z,8.57
2022-10-05T11:08:06.960Z,5.97
2022-10-05T11:11:12.306Z,6.30
2022-10-05T11:14:02.724Z,3.53
2022-10-05T11:16:53.849Z,7.15
2022-10-05T11:19:59.216Z,5.55
2022-10-05T11:22:51.453Z,6.63
2022-10-05T11:25:50.077Z,6.95
2022-10-05T11:28:50.692Z,6.50
2022-10-05T11:31:42.870Z,5.38
2022-10-05T11:34:53.120Z,6.20
2022-10-05T11:38:09.355Z,3.47
2022-10-05T11:41:12.470Z,4.70
2022-10-05T11:44:08.503Z,7.28
2022-10-05T11:46:43.795Z,6.65
2022-10-05T11:49:24.352Z,4.45
2022-10-05T11:52:00.869Z,4.20
2022-10-05T11:55:05.765Z,4.57
2022-10-05T11:57:34.601Z,7.72
2022-10-05T12:00:12.294Z,6.22
2022-10-05T12:03:09.353Z,7.38
2022-10-05T12:05:48.913Z,4.32
2022-10-05T12:08:29.220Z,6.07
2022-10-05T12:11:07.798Z,4.85
2022-10-05T12:13:43.266Z,5.65
2022-10-05T12:16:18.584Z,4.43
2022-10-05T12:19:03.168Z,7.15
2022-10-05T12:21:39.054Z,4.78
2022-10-05T12:24:15.324Z,5.05
2022-10-05T12:26:49.575Z,3.45
2022-10-05T12:29:24.561Z,6.75
2022-10-05T12:31:59.876Z,4.22
2022-10-05T12:34:42.258Z,4.00
2022-10-05T12:37:17.535Z,3.33
2022-10-05T12:39:52.161Z,4.97
2022-10-05T12:42:29.642Z,6.93
2022-10-05T12:45:11.155Z,5.03
2022-10-05T12:47:55.161Z,6.28
2022-10-05T12:50:30.690Z,4.30
2022-10-05T12:53:11.579Z,6.22
2022-10-05T12:55:46.427Z,6.88
2022-10-05T12:58:26.526Z,5.35
2022-10-05T13:01:02.364Z,4.97
2022-10-05T13:03:38.381Z,7.28
2022-10-05T13:06:16.397Z,4.32
2022-10-05T13:08:53.320Z,4.82
2022-10-05T13:11:29.462Z,8.77
2022-10-05T13:14:08.339Z,6.28
2022-10-05T13:16:41.350Z,8.43
2022-10-05T13:19:29.448Z,6.22
2022-10-05T13:22:22.250Z,4.97
2022-10-05T13:25:00.686Z,7.50
2022-10-05T13:27:32.503Z,4.30
2022-10-05T13:30:05.233Z,5.05
2022-10-05T13:32:37.010Z,4.47
2022-10-05T13:35:25.490Z,3.70
2022-10-05T13:38:04.384Z,9.45
2022-10-05T13:40:39.199Z,4.78
2022-10-05T13:43:17.923Z,5.88
2022-10-05T13:45:52.772Z,5.25
2022-10-05T13:48:47.867Z,4.63
2022-10-05T13:51:21.066Z,4.35
2022-10-05T13:53:57.370Z,5.15
2022-10-05T13:56:31.040Z,5.70
2022-10-05T13:59:11.906Z,6.55
2022-10-05T14:01:43.539Z,3.75
2022-10-05T14:04:17.804Z,7.55
2022-10-05T14:06:46.632Z,8.75
2022-10-05T14:09:32.278Z,5.60
2022-10-05T14:12:15.097Z,5.05
2022-10-05T14:14:48.961Z,4.80
2022-10-05T14:17:32.137Z,5.28
2022-10-05T14:20:03.968Z,6.80
2022-10-05T14:22:42.597Z,6.80
2022-10-05T14:25:18.270Z,5.38
2022-10-05T14:27:53.562Z,4.88
2022-10-05T14:30:24.282Z,5.85
2022-10-05T14:32:56.232Z,6.68
2022-10-05T14:35:26.238Z,6.05
2022-10-05T14:38:00.429Z,4.97
2022-10-05T14:40:32.967Z,11.77
2022-10-05T14:43:17.205Z,4.72
2022-10-05T14:45:56.193Z,9.13
2022-10-05T14:48:27.984Z,6.63
2022-10-05T14:50:59.353Z,5.68
2022-10-05T14:53:39.126Z,7.35
2022-10-05T14:56:34.078Z,6.07
2022-10-05T14:59:23.232Z,8.18
2022-10-05T15:01:58.780Z,8.55
2022-10-05T15:04:41.727Z,4.93
2022-10-05T15:07:21.816Z,10.68
2022-10-05T15:10:19.122Z,4.82
2022-10-05T15:12:49.364Z,9.07
2022-10-05T15:15:28.485Z,6.72
2022-10-05T15:18:01.368Z,9.52
2022-10-05T15:20:38.546Z,6.53
2022-10-05T15:23:24.822Z,5.40
2022-10-05T15:26:03.996Z,5.75
2022-10-05T15:28:39.166Z,5.72
2022-10-05T15:31:26.924Z,6.00
2022-10-05T15:34:01.513Z,5.88
2022-10-05T15:36:36.832Z,5.43
2022-10-05T15:39:14.177Z,5.03
2022-10-05T15:42:01.781Z,6.05
2022-10-05T15:44:52.095Z,8.95
2022-10-05T15:47:23.983Z,6.38
2022-10-05T15:50:03.017Z,4.63
2022-10-05T15:52:37.130Z,7.47
2022-10-05T15:55:32.184Z,7.32
2022-10-05T15:58:17.492Z,6.22
2022-10-05T16:00:49.743Z,9.75
2022-10-05T16:03:24.317Z,7.38
2022-10-05T16:06:15.105Z,7.53
2022-10-05T16:08:55.475Z,11.27
2022-10-05T16:12:03.743Z,11.32
2022-10-05T16:14:58.229Z,12.30
2022-10-05T16:17:48.039Z,7.93
2022-10-05T16:20:28.880Z,6.88
2022-10-05T16:23:03.316Z,6.97
2022-10-05T16:25:44.028Z,8.73
2022-10-05T16:28:23.266Z,8.38
2022-10-05T16:31:00.218Z,6.63
2022-10-05T16:33:46.578Z,7.85
2022-10-05T16:36:23.705Z,10.77
2022-10-05T16:39:00.658Z,10.57
2022-10-05T16:41:34.967Z,9.55
2022-10-05T16:44:11.917Z,7.47
2022-10-05T16:46:49.656Z,9.13
2022-10-05T16:49:31.496Z,10.13
2022-10-05T16:52:01.215Z,8.60
2022-10-05T16:54:33.329Z,7.10
2022-10-05T16:57:10.818Z,7.95
2022-10-05T17:00:10.868Z,11.48
2022-10-05T17:03:11.254Z,9.13
2022-10-05T17:05:58.837Z,13.20
2022-10-05T17:08:46.198Z,9.55
2022-10-05T17:11:28.716Z,8.63
2022-10-05T17:14:15.961Z,11.18
2022-10-05T17:17:01.832Z,14.70
2022-10-05T17:19:46.443Z,9.10
2022-10-05T17:22:26.251Z,13.93
2022-10-05T17:25:02.721Z,12.35
2022-10-05T17:27:35.611Z,12.82
2022-10-05T17:30:37.595Z,11.70
2022-10-05T17:33:20.428Z,14.77
2022-10-05T17:36:12.827Z,14.18
2022-10-05T17:38:53.499Z,13.75
2022-10-05T17:41:24.828Z,11.60
2022-10-05T17:44:20.164Z,13.43
2022-10-05T17:46:51.116Z,14.43
2022-10-05T17:50:14.977Z,13.90
2022-10-05T17:53:02.560Z,14.13
2022-10-05T17:55:47.105Z,12.60
2022-10-05T17:59:00.612Z,12.48
2022-10-05T18:01:31.677Z,12.65
2022-10-05T18:04:39.155Z,12.63
2022-10-05T18:07:22.852Z,14.40
2022-10-05T18:09:55.785Z,18.23
2022-10-05T18:12:40.753Z,18.77
2022-10-05T18:15:48.390Z,18.50
2022-10-05T18:18:56.497Z,15.55
2022-10-05T18:21:39.416Z,23.17
2022-10-05T18:24:42.095Z,21.73
2022-10-05T18:27:34.264Z,25.05
2022-10-05T18:30:18.336Z,22.75
2022-10-05T18:33:13.056Z,21.63
2022-10-05T18:35:53.424Z,19.90
2022-10-05T18:38:34.246Z,21.20
2022-10-05T18:41:08.971Z,19.55
2022-10-05T18:43:48.007Z,20.30
2022-10-05T18:46:33.929Z,17.73
2022-10-05T18:49:18.167Z,18.83
2022-10-05T18:51:53.497Z,20.40
2022-10-05T18:54:39.192Z,16.23
2022-10-05T18:57:39.493Z,16.92
2022-10-05T19:00:16.518Z,16.17
2022-10-05T19:02:49.453Z,18.65
2022-10-05T19:05:49.129Z,16.73
2022-10-05T19:08:28.895Z,19.13
2022-10-05T19:11:03.557Z,17.27
2022-10-05T19:13:42.602Z,18.80
2022-10-05T19:16:30.630Z,20.52
2022-10-05T19:19:10.713Z,19.27
2022-10-05T19:21:47.797Z,22.50
2022-10-05T19:24:34.235Z,19.13
2022-10-05T19:27:08.045Z,20.80
2022-10-05T19:29:53.678Z,18.80
2022-10-05T19:32:32.694Z,19.42
2022-10-05T19:35:13.315Z,18.23
2022-10-05T19:37:51.261Z,17.25
2022-10-05T19:40:26.505Z,15.55
2022-10-05T19:43:12.889Z,14.90
2022-10-05T19:45:54.340Z,16.83
2022-10-05T19:48:31.002Z,15.93
2022-10-05T19:51:01.629Z,17.90
2022-10-05T19:53:36.225Z,16.00
2022-10-05T19:56:19.031Z,17.38
2022-10-05T19:58:48.398Z,18.00
2022-10-05T20:01:25.340Z,12.32
2022-10-05T20:03:55.474Z,16.05
2022-10-05T20:06:23.775Z,20.83
2022-10-05T20:08:54.345Z,20.75
2022-10-05T20:11:27.106Z,15.65
2022-10-05T20:14:18.230Z,15.30
2022-10-05T20:17:03.676Z,23.60
2022-10-05T20:19:59.707Z,19.60
2022-10-05T20:22:31.534Z,15.77
2022-10-05T20:25:02.238Z,17.08
2022-10-05T20:27:50.520Z,15.50
2022-10-05T20:30:20.798Z,19.60
2022-10-05T20:32:50.169Z,14.75
2022-10-05T20:35:23.022Z,14.75
2022-10-05T20:37:51.189Z,14.85
2022-10-05T20:40:21.188Z,17.35
2022-10-05T20:42:50.334Z,18.50
2022-10-05T20:45:18.752Z,21.13
2022-10-05T20:47:47.584Z,17.38
2022-10-05T20:50:16.228Z,20.25
2022-10-05T20:52:45.988Z,20.15
2022-10-05T20:55:14.187Z,17.15
2022-10-05T20:57:43.590Z,19.25
2022-10-05T21:00:13.629Z,17.80
2022-10-05T21:02:41.773Z,17.10
2022-10-05T21:05:10.518Z,20.02
2022-10-05T21:07:38.835Z,17.58
2022-10-05T21:10:09.374Z,16.13
2022-10-05T21:12:37.799Z,16.02
2022-10-05T21:15:06.974Z,18.65
2022-10-05T21:17:36.311Z,18.13
2022-10-05T21:20:05.203Z,17.08
2022-10-05T21:22:35.499Z,18.67
2022-10-05T21:25:03.638Z,19.98
2022-10-05T21:27:33.489Z,14.65
2022-10-05T21:30:01.857Z,16.10
2022-10-05T21:32:29.992Z,17.00
2022-10-05T21:34:58.294Z,16.05
2022-10-05T21:37:26.408Z,15.20
2022-10-05T21:39:54.514Z,14.73
2022-10-05T21:42:23.583Z,15.48
2022-10-05T21:44:53.198Z,18.52
2022-10-05T21:47:21.361Z,17.05
2022-10-05T21:49:49.776Z,18.45
2022-10-05T21:52:18.034Z,16.48
2022-10-05T21:54:46.260Z,15.52
2022-10-05T21:57:15.361Z,15.52
2022-10-05T21:59:44.188Z,13.88
2022-10-05T22:02:13.719Z,16.00
2022-10-05T22:04:42.241Z,16.67
2022-10-05T22:07:19.008Z,14.15
2022-10-05T22:09:48.723Z,13.80
2022-10-05T22:12:17.294Z,19.60
2022-10-05T22:14:45.450Z,15.02
2022-10-05T22:17:24.407Z,13.70
2022-10-05T22:19:52.859Z,17.52
2022-10-05T22:22:21.802Z,13.85
2022-10-05T22:24:50.002Z,16.63
2022-10-05T22:27:18.239Z,11.93
2022-10-05T22:29:47.097Z,12.75
2022-10-05T22:32:16.774Z,14.23
2022-10-05T22:34:44.998Z,10.68
2022-10-05T22:37:15.299Z,9.68
2022-10-05T22:39:44.258Z,13.25
2022-10-05T22:42:12.547Z,12.05
2022-10-05T22:44:42.211Z,12.85
2022-10-05T22:47:10.342Z,12.50
2022-10-05T22:49:39.813Z,14.60
2022-10-05T22:52:08.440Z,15.95
2022-10-05T22:54:37.384Z,11.63
2022-10-05T22:57:05.744Z,15.02
2022-10-05T22:59:34.079Z,14.48
2022-10-05T23:02:02.351Z,12.88
2022-10-05T23:04:30.980Z,15.18
2022-10-05T23:07:00.621Z,12.27
2022-10-05T23:09:28.773Z,14.35
2022-10-05T23:11:57.085Z,13.40
2022-10-05T23:14:25.977Z,12.02
2022-10-05T23:16:54.526Z,10.80
2022-10-05T23:19:23.315Z,11.02
2022-10-05T23:21:51.620Z,10.73
2022-10-05T23:24:21.088Z,12.27
2022-10-05T23:26:49.165Z,12.27
2022-10-05T23:29:17.482Z,12.55
2022-10-05T23:31:46.033Z,12.07
2022-10-05T23:34:14.217Z,13.60
2022-10-05T23:36:42.489Z,12.18
2022-10-05T23:39:10.626Z,13.35
2022-10-05T23:41:40.478Z,9.63
2022-10-05T23:44:08.766Z,9.95
2022-10-05T23:46:36.820Z,12.23
2022-10-05T23:49:05.185Z,10.13
2022-10-05T23:51:33.673Z,11.10
2022-10-05T23:54:01.819Z,12.00
2022-10-05T23:56:31.081Z,15.38
2022-10-05T23:59:00.979Z,10.73
